Evans, Georgia
Current Conditions -  °F | °C
As of 2:53 PM on Monday 24 Nov 2014 (Local Time) from KDNL Reporting Station
Overcast Overcast  
Wind Chill: 72°   Ceiling: 11000
Heat Index: 72°   Visibility: 10mi
Dew Point: 65°   Wind: 10mph
Humidity: 78%   Direction: 190°S
Pressure: 29.82"   Gusts: NA
Location:  33.53°N, 82.13°W
Report Text: KDNL 241953Z AUTO 19009KT 10SM OVC110 22/18 A2982 RMK AO2 RAE1858 SLP094 P0000 T02220183
Loading
Personal Weather Stations






























Interactive Weather Map New forecast layout! Learn more

10-Day Weather Forecast

Advertisements
Track Severe Weather on mobile